sensor_id;sensor_type;location;lat;lon;timestamp;P1;P2;P0
57049;PMS7003;42935;50.966;16.992;2023-04-03T00:00:58;6;5;3
57049;PMS7003;42935;50.966;16.992;2023-04-03T00:04:16;11;5;3
57049;PMS7003;42935;50.966;16.992;2023-04-03T00:07:37;7;4;3
57049;PMS7003;42935;50.966;16.992;2023-04-03T00:10:53;3;2;2
57049;PMS7003;42935;50.966;16.992;2023-04-03T00:14:14;6;5;3
57049;PMS7003;42935;50.966;16.992;2023-04-03T00:17:33;9;6;4
57049;PMS7003;42935;50.966;16.992;2023-04-03T00:20:51;11;5;3
57049;PMS7003;42935;50.966;16.992;2023-04-03T00:24:11;6;5;3
57049;PMS7003;42935;50.966;16.992;2023-04-03T00:27:31;10;5;3
57049;PMS7003;42935;50.966;16.992;2023-04-03T00:30:48;11;5;3
57049;PMS7003;42935;50.966;16.992;2023-04-03T00:34:09;6;4;2
57049;PMS7003;42935;50.966;16.992;2023-04-03T00:37:27;8;5;2
57049;PMS7003;42935;50.966;16.992;2023-04-03T00:40:47;6;6;3
57049;PMS7003;42935;50.966;16.992;2023-04-03T00:48:08;6;6;3
57049;PMS7003;42935;50.966;16.992;2023-04-03T00:51:33;9;5;4
57049;PMS7003;42935;50.966;16.992;2023-04-03T00:54:49;8;3;2
57049;PMS7003;42935;50.966;16.992;2023-04-03T00:58:11;7;4;2
57049;PMS7003;42935;50.966;16.992;2023-04-03T01:01:35;5;2;1
57049;PMS7003;42935;50.966;16.992;2023-04-03T01:04:55;8;3;1
57049;PMS7003;42935;50.966;16.992;2023-04-03T01:08:15;5;2;1
57049;PMS7003;42935;50.966;16.992;2023-04-03T01:11:33;6;3;2
57049;PMS7003;42935;50.966;16.992;2023-04-03T01:14:51;5;3;1
57049;PMS7003;42935;50.966;16.992;2023-04-03T01:18:12;4;3;2
57049;PMS7003;42935;50.966;16.992;2023-04-03T01:25:02;2;2;1
57049;PMS7003;42935;50.966;16.992;2023-04-03T01:28:23;8;4;2
57049;PMS7003;42935;50.966;16.992;2023-04-03T01:31:49;4;2;1
57049;PMS7003;42935;50.966;16.992;2023-04-03T01:35:14;7;4;2
57049;PMS7003;42935;50.966;16.992;2023-04-03T01:38:34;5;4;2
57049;PMS7003;42935;50.966;16.992;2023-04-03T01:41:55;6;2;2
57049;PMS7003;42935;50.966;16.992;2023-04-03T01:45:13;6;5;3
57049;PMS7003;42935;50.966;16.992;2023-04-03T01:48:37;5;2;2
57049;PMS7003;42935;50.966;16.992;2023-04-03T01:51:58;10;5;3
57049;PMS7003;42935;50.966;16.992;2023-04-03T01:55:16;4;3;2
57049;PMS7003;42935;50.966;16.992;2023-04-03T01:58:36;6;4;3
57049;PMS7003;42935;50.966;16.992;2023-04-03T02:01:56;6;3;1
57049;PMS7003;42935;50.966;16.992;2023-04-03T02:05:18;9;3;2
57049;PMS7003;42935;50.966;16.992;2023-04-03T02:08:39;8;3;2
57049;PMS7003;42935;50.966;16.992;2023-04-03T02:11:56;8;4;3
57049;PMS7003;42935;50.966;16.992;2023-04-03T02:15:12;4;3;2
57049;PMS7003;42935;50.966;16.992;2023-04-03T02:18:32;5;4;2
57049;PMS7003;42935;50.966;16.992;2023-04-03T02:21:52;2;2;2
57049;PMS7003;42935;50.966;16.992;2023-04-03T02:25:10;5;2;1
57049;PMS7003;42935;50.966;16.992;2023-04-03T02:28:59;8;2;2
57049;PMS7003;42935;50.966;16.992;2023-04-03T02:32:20;4;3;2
57049;PMS7003;42935;50.966;16.992;2023-04-03T02:35:41;5;3;2
57049;PMS7003;42935;50.966;16.992;2023-04-03T02:38:58;6;4;2
57049;PMS7003;42935;50.966;16.992;2023-04-03T02:42:18;7;4;2
57049;PMS7003;42935;50.966;16.992;2023-04-03T02:45:39;4;4;2
57049;PMS7003;42935;50.966;16.992;2023-04-03T02:48:59;8;4;2
57049;PMS7003;42935;50.966;16.992;2023-04-03T02:52:19;7;4;2
57049;PMS7003;42935;50.966;16.992;2023-04-03T02:55:40;7;5;3
57049;PMS7003;42935;50.966;16.992;2023-04-03T02:59:01;6;3;1
57049;PMS7003;42935;50.966;16.992;2023-04-03T03:02:18;6;5;3
57049;PMS7003;42935;50.966;16.992;2023-04-03T03:05:37;6;4;2
57049;PMS7003;42935;50.966;16.992;2023-04-03T03:08:55;8;5;2
57049;PMS7003;42935;50.966;16.992;2023-04-03T03:12:16;7;4;2
57049;PMS7003;42935;50.966;16.992;2023-04-03T03:15:45;8;6;4
57049;PMS7003;42935;50.966;16.992;2023-04-03T03:19:05;8;5;4
57049;PMS7003;42935;50.966;16.992;2023-04-03T03:22:25;8;6;3
57049;PMS7003;42935;50.966;16.992;2023-04-03T03:25:44;6;4;3
57049;PMS7003;42935;50.966;16.992;2023-04-03T03:29:02;9;5;4
57049;PMS7003;42935;50.966;16.992;2023-04-03T03:32:23;9;5;3
57049;PMS7003;42935;50.966;16.992;2023-04-03T03:35:41;8;4;3
57049;PMS7003;42935;50.966;16.992;2023-04-03T03:39:01;11;7;4
57049;PMS7003;42935;50.966;16.992;2023-04-03T03:42:21;8;4;3
57049;PMS7003;42935;50.966;16.992;2023-04-03T03:45:43;5;2;2
57049;PMS7003;42935;50.966;16.992;2023-04-03T03:49:04;28;18;12
57049;PMS7003;42935;50.966;16.992;2023-04-03T03:52:24;16;10;7
57049;PMS7003;42935;50.966;16.992;2023-04-03T03:55:44;14;9;7
57049;PMS7003;42935;50.966;16.992;2023-04-03T03:59:07;12;10;6
57049;PMS7003;42935;50.966;16.992;2023-04-03T04:02:26;13;9;6
57049;PMS7003;42935;50.966;16.992;2023-04-03T04:05:47;16;11;8
57049;PMS7003;42935;50.966;16.992;2023-04-03T04:09:08;14;12;8
57049;PMS7003;42935;50.966;16.992;2023-04-03T04:12:25;18;12;7
57049;PMS7003;42935;50.966;16.992;2023-04-03T04:15:45;17;12;7
57049;PMS7003;42935;50.966;16.992;2023-04-03T04:19:13;25;18;9
57049;PMS7003;42935;50.966;16.992;2023-04-03T04:22:41;23;16;10
57049;PMS7003;42935;50.966;16.992;2023-04-03T04:26:01;19;13;8
57049;PMS7003;42935;50.966;16.992;2023-04-03T04:29:21;12;8;5
57049;PMS7003;42935;50.966;16.992;2023-04-03T04:32:41;20;12;7
57049;PMS7003;42935;50.966;16.992;2023-04-03T04:35:59;12;9;6
57049;PMS7003;42935;50.966;16.992;2023-04-03T04:39:19;26;14;9
57049;PMS7003;42935;50.966;16.992;2023-04-03T04:42:39;13;11;8
57049;PMS7003;42935;50.966;16.992;2023-04-03T04:46:00;15;9;6
57049;PMS7003;42935;50.966;16.992;2023-04-03T04:49:26;15;8;5
57049;PMS7003;42935;50.966;16.992;2023-04-03T04:52:46;12;10;5
57049;PMS7003;42935;50.966;16.992;2023-04-03T04:56:02;15;11;7
57049;PMS7003;42935;50.966;16.992;2023-04-03T04:59:23;15;12;8
57049;PMS7003;42935;50.966;16.992;2023-04-03T05:02:43;13;11;7
57049;PMS7003;42935;50.966;16.992;2023-04-03T05:06:03;13;8;6
57049;PMS7003;42935;50.966;16.992;2023-04-03T05:09:24;14;10;7
57049;PMS7003;42935;50.966;16.992;2023-04-03T05:12:43;11;8;6
57049;PMS7003;42935;50.966;16.992;2023-04-03T05:16:01;12;8;6
57049;PMS7003;42935;50.966;16.992;2023-04-03T05:19:21;16;9;5
57049;PMS7003;42935;50.966;16.992;2023-04-03T05:22:41;15;10;7
57049;PMS7003;42935;50.966;16.992;2023-04-03T05:26:01;17;12;8
57049;PMS7003;42935;50.966;16.992;2023-04-03T05:29:19;9;8;5
57049;PMS7003;42935;50.966;16.992;2023-04-03T05:32:40;11;7;4
57049;PMS7003;42935;50.966;16.992;2023-04-03T05:36:02;8;6;4
57049;PMS7003;42935;50.966;16.992;2023-04-03T05:39:25;9;7;5
57049;PMS7003;42935;50.966;16.992;2023-04-03T05:42:46;12;7;6
57049;PMS7003;42935;50.966;16.992;2023-04-03T05:46:14;9;5;4
57049;PMS7003;42935;50.966;16.992;2023-04-03T05:49:34;8;4;4
57049;PMS7003;42935;50.966;16.992;2023-04-03T05:53:00;5;4;2
57049;PMS7003;42935;50.966;16.992;2023-04-03T05:56:20;5;4;3
57049;PMS7003;42935;50.966;16.992;2023-04-03T05:59:40;8;4;2
57049;PMS7003;42935;50.966;16.992;2023-04-03T06:03:00;8;7;4
57049;PMS7003;42935;50.966;16.992;2023-04-03T06:06:21;5;3;2
57049;PMS7003;42935;50.966;16.992;2023-04-03T06:09:38;9;6;4
57049;PMS7003;42935;50.966;16.992;2023-04-03T06:12:57;18;8;7
57049;PMS7003;42935;50.966;16.992;2023-04-03T06:16:17;11;8;5
57049;PMS7003;42935;50.966;16.992;2023-04-03T06:19:43;15;10;6
57049;PMS7003;42935;50.966;16.992;2023-04-03T06:23:06;28;22;15
57049;PMS7003;42935;50.966;16.992;2023-04-03T06:26:32;36;29;19
57049;PMS7003;42935;50.966;16.992;2023-04-03T06:29:53;33;27;16
57049;PMS7003;42935;50.966;16.992;2023-04-03T06:33:13;14;9;7
57049;PMS7003;42935;50.966;16.992;2023-04-03T06:37:03;14;10;7
57049;PMS7003;42935;50.966;16.992;2023-04-03T06:40:24;15;11;8
57049;PMS7003;42935;50.966;16.992;2023-04-03T06:43:45;11;6;5
57049;PMS7003;42935;50.966;16.992;2023-04-03T06:47:10;10;8;5
57049;PMS7003;42935;50.966;16.992;2023-04-03T06:50:33;9;8;6
57049;PMS7003;42935;50.966;16.992;2023-04-03T06:53:59;13;10;7
57049;PMS7003;42935;50.966;16.992;2023-04-03T06:57:21;10;8;6
57049;PMS7003;42935;50.966;16.992;2023-04-03T07:00:42;20;14;10
57049;PMS7003;42935;50.966;16.992;2023-04-03T07:04:00;12;9;6
57049;PMS7003;42935;50.966;16.992;2023-04-03T07:07:24;16;11;8
57049;PMS7003;42935;50.966;16.992;2023-04-03T07:10:42;14;10;7
57049;PMS7003;42935;50.966;16.992;2023-04-03T07:14:08;10;8;6
57049;PMS7003;42935;50.966;16.992;2023-04-03T07:17:30;10;8;5
57049;PMS7003;42935;50.966;16.992;2023-04-03T07:20:50;10;8;5
57049;PMS7003;42935;50.966;16.992;2023-04-03T07:24:14;12;10;7
57049;PMS7003;42935;50.966;16.992;2023-04-03T07:27:35;9;8;6
57049;PMS7003;42935;50.966;16.992;2023-04-03T07:34:28;13;10;7
57049;PMS7003;42935;50.966;16.992;2023-04-03T07:37:49;13;10;6
57049;PMS7003;42935;50.966;16.992;2023-04-03T07:41:19;20;13;8
57049;PMS7003;42935;50.966;16.992;2023-04-03T07:44:40;19;14;10
57049;PMS7003;42935;50.966;16.992;2023-04-03T07:48:00;20;15;9
57049;PMS7003;42935;50.966;16.992;2023-04-03T07:51:21;18;14;9
57049;PMS7003;42935;50.966;16.992;2023-04-03T07:54:49;17;12;8
57049;PMS7003;42935;50.966;16.992;2023-04-03T07:58:13;14;13;9
57049;PMS7003;42935;50.966;16.992;2023-04-03T08:01:32;16;11;9
57049;PMS7003;42935;50.966;16.992;2023-04-03T08:04:53;13;10;7
57049;PMS7003;42935;50.966;16.992;2023-04-03T08:08:15;23;14;9
57049;PMS7003;42935;50.966;16.992;2023-04-03T08:11:38;18;12;9
57049;PMS7003;42935;50.966;16.992;2023-04-03T08:14:54;14;11;8
57049;PMS7003;42935;50.966;16.992;2023-04-03T08:18:15;17;13;8
57049;PMS7003;42935;50.966;16.992;2023-04-03T08:21:36;17;11;8
57049;PMS7003;42935;50.966;16.992;2023-04-03T08:24:57;21;15;10
57049;PMS7003;42935;50.966;16.992;2023-04-03T08:28:14;19;14;11
57049;PMS7003;42935;50.966;16.992;2023-04-03T08:31:30;15;11;9
57049;PMS7003;42935;50.966;16.992;2023-04-03T08:34:48;16;12;8
57049;PMS7003;42935;50.966;16.992;2023-04-03T08:38:09;25;19;12
57049;PMS7003;42935;50.966;16.992;2023-04-03T08:44:59;8;8;6
57049;PMS7003;42935;50.966;16.992;2023-04-03T08:51:48;13;9;7
57049;PMS7003;42935;50.966;16.992;2023-04-03T08:55:15;12;9;6
57049;PMS7003;42935;50.966;16.992;2023-04-03T09:02:29;10;7;5
57049;PMS7003;42935;50.966;16.992;2023-04-03T09:05:53;6;5;4
57049;PMS7003;42935;50.966;16.992;2023-04-03T09:09:28;9;7;5
57049;PMS7003;42935;50.966;16.992;2023-04-03T09:12:52;10;6;5
57049;PMS7003;42935;50.966;16.992;2023-04-03T09:30:19;6;5;4
57049;PMS7003;42935;50.966;16.992;2023-04-03T09:33:44;8;6;4
57049;PMS7003;42935;50.966;16.992;2023-04-03T09:37:03;8;6;5
57049;PMS7003;42935;50.966;16.992;2023-04-03T09:40:32;7;5;4
57049;PMS7003;42935;50.966;16.992;2023-04-03T09:43:53;4;3;2
57049;PMS7003;42935;50.966;16.992;2023-04-03T09:50:56;5;3;3
57049;PMS7003;42935;50.966;16.992;2023-04-03T10:08:59;5;3;3
57049;PMS7003;42935;50.966;16.992;2023-04-03T10:12:23;7;5;4
57049;PMS7003;42935;50.966;16.992;2023-04-03T10:15:44;4;3;2
57049;PMS7003;42935;50.966;16.992;2023-04-03T10:26:12;8;7;5
57049;PMS7003;42935;50.966;16.992;2023-04-03T10:36:46;7;4;3
57049;PMS7003;42935;50.966;16.992;2023-04-03T10:54:12;9;6;5
57049;PMS7003;42935;50.966;16.992;2023-04-03T10:57:35;5;5;3
57049;PMS7003;42935;50.966;16.992;2023-04-03T11:00:59;10;7;6
57049;PMS7003;42935;50.966;16.992;2023-04-03T11:04:20;7;5;4
57049;PMS7003;42935;50.966;16.992;2023-04-03T11:08:38;19;15;10
57049;PMS7003;42935;50.966;16.992;2023-04-03T11:11:50;12;10;6
57049;PMS7003;42935;50.966;16.992;2023-04-03T11:15:16;7;5;4
57049;PMS7003;42935;50.966;16.992;2023-04-03T11:18:45;18;12;9
57049;PMS7003;42935;50.966;16.992;2023-04-03T11:22:42;5;4;3
57049;PMS7003;42935;50.966;16.992;2023-04-03T11:26:10;10;6;4
57049;PMS7003;42935;50.966;16.992;2023-04-03T11:29:36;9;5;4
57049;PMS7003;42935;50.966;16.992;2023-04-03T11:32:59;11;7;5
57049;PMS7003;42935;50.966;16.992;2023-04-03T11:36:29;9;8;6
57049;PMS7003;42935;50.966;16.992;2023-04-03T11:39:58;11;7;6
57049;PMS7003;42935;50.966;16.992;2023-04-03T11:43:28;15;13;9
57049;PMS7003;42935;50.966;16.992;2023-04-03T11:46:51;6;4;3
57049;PMS7003;42935;50.966;16.992;2023-04-03T11:53:41;6;6;4
57049;PMS7003;42935;50.966;16.992;2023-04-03T11:57:00;7;7;6
57049;PMS7003;42935;50.966;16.992;2023-04-03T12:07:25;5;4;3
57049;PMS7003;42935;50.966;16.992;2023-04-03T12:14:20;4;4;3
57049;PMS7003;42935;50.966;16.992;2023-04-03T12:17:41;6;4;3
57049;PMS7003;42935;50.966;16.992;2023-04-03T12:21:02;6;4;2
57049;PMS7003;42935;50.966;16.992;2023-04-03T12:24:23;6;5;3
57049;PMS7003;42935;50.966;16.992;2023-04-03T12:27:47;8;5;4
57049;PMS7003;42935;50.966;16.992;2023-04-03T12:31:09;9;7;5
57049;PMS7003;42935;50.966;16.992;2023-04-03T12:41:38;20;15;10
57049;PMS7003;42935;50.966;16.992;2023-04-03T12:45:56;28;19;11
57049;PMS7003;42935;50.966;16.992;2023-04-03T12:52:45;22;15;10
57049;PMS7003;42935;50.966;16.992;2023-04-03T12:59:40;18;11;8
57049;PMS7003;42935;50.966;16.992;2023-04-03T13:03:19;8;6;4
57049;PMS7003;42935;50.966;16.992;2023-04-03T13:06:40;9;7;6
57049;PMS7003;42935;50.966;16.992;2023-04-03T13:13:34;15;10;7
57049;PMS7003;42935;50.966;16.992;2023-04-03T13:20:24;15;10;7
57049;PMS7003;42935;50.966;16.992;2023-04-03T13:23:48;11;9;6
57049;PMS7003;42935;50.966;16.992;2023-04-03T13:27:10;11;10;8
57049;PMS7003;42935;50.966;16.992;2023-04-03T13:30:37;10;8;6
57049;PMS7003;42935;50.966;16.992;2023-04-03T13:37:30;21;16;11
57049;PMS7003;42935;50.966;16.992;2023-04-03T13:40:55;23;16;11
57049;PMS7003;42935;50.966;16.992;2023-04-03T13:44:28;16;12;9
57049;PMS7003;42935;50.966;16.992;2023-04-03T13:47:51;7;6;4
57049;PMS7003;42935;50.966;16.992;2023-04-03T13:51:17;7;6;5
57049;PMS7003;42935;50.966;16.992;2023-04-03T13:54:45;14;11;8
57049;PMS7003;42935;50.966;16.992;2023-04-03T13:58:20;23;18;13
57049;PMS7003;42935;50.966;16.992;2023-04-03T14:01:40;20;15;10
57049;PMS7003;42935;50.966;16.992;2023-04-03T14:05:11;19;15;9
57049;PMS7003;42935;50.966;16.992;2023-04-03T14:08:29;14;10;9
57049;PMS7003;42935;50.966;16.992;2023-04-03T14:11:52;33;26;19
57049;PMS7003;42935;50.966;16.992;2023-04-03T14:15:18;10;8;6
57049;PMS7003;42935;50.966;16.992;2023-04-03T14:18:42;10;8;6
57049;PMS7003;42935;50.966;16.992;2023-04-03T14:22:10;8;7;5
57049;PMS7003;42935;50.966;16.992;2023-04-03T14:25:34;12;8;5
57049;PMS7003;42935;50.966;16.992;2023-04-03T14:29:00;20;14;9
57049;PMS7003;42935;50.966;16.992;2023-04-03T14:32:21;13;10;8
57049;PMS7003;42935;50.966;16.992;2023-04-03T14:35:44;11;8;7
57049;PMS7003;42935;50.966;16.992;2023-04-03T14:42:41;17;13;8
57049;PMS7003;42935;50.966;16.992;2023-04-03T14:46:04;14;10;8
57049;PMS7003;42935;50.966;16.992;2023-04-03T14:50:00;11;9;7
57049;PMS7003;42935;50.966;16.992;2023-04-03T14:53:24;8;8;5
57049;PMS7003;42935;50.966;16.992;2023-04-03T14:56:47;9;9;7
57049;PMS7003;42935;50.966;16.992;2023-04-03T15:00:13;11;10;8
57049;PMS7003;42935;50.966;16.992;2023-04-03T15:03:35;8;7;5
57049;PMS7003;42935;50.966;16.992;2023-04-03T15:06:56;10;6;4
57049;PMS7003;42935;50.966;16.992;2023-04-03T15:10:18;16;11;7
57049;PMS7003;42935;50.966;16.992;2023-04-03T15:13:40;10;8;5
57049;PMS7003;42935;50.966;16.992;2023-04-03T15:17:00;6;4;3
57049;PMS7003;42935;50.966;16.992;2023-04-03T15:20:27;11;7;6
57049;PMS7003;42935;50.966;16.992;2023-04-03T15:23:50;12;9;7
57049;PMS7003;42935;50.966;16.992;2023-04-03T15:27:09;13;9;8
57049;PMS7003;42935;50.966;16.992;2023-04-03T15:30:31;16;13;9
57049;PMS7003;42935;50.966;16.992;2023-04-03T15:33:55;39;27;17
57049;PMS7003;42935;50.966;16.992;2023-04-03T15:37:15;17;14;10
57049;PMS7003;42935;50.966;16.992;2023-04-03T15:41:02;24;19;12
57049;PMS7003;42935;50.966;16.992;2023-04-03T15:44:23;32;22;14
57049;PMS7003;42935;50.966;16.992;2023-04-03T15:47:50;39;29;16
57049;PMS7003;42935;50.966;16.992;2023-04-03T15:51:14;50;36;21
57049;PMS7003;42935;50.966;16.992;2023-04-03T15:54:39;45;32;20
57049;PMS7003;42935;50.966;16.992;2023-04-03T15:58:07;32;20;13
57049;PMS7003;42935;50.966;16.992;2023-04-03T16:01:28;34;26;15
57049;PMS7003;42935;50.966;16.992;2023-04-03T16:04:48;23;17;11
57049;PMS7003;42935;50.966;16.992;2023-04-03T16:08:06;22;18;11
57049;PMS7003;42935;50.966;16.992;2023-04-03T16:11:26;24;16;11
57049;PMS7003;42935;50.966;16.992;2023-04-03T16:14:45;26;20;13
57049;PMS7003;42935;50.966;16.992;2023-04-03T16:18:05;22;18;11
57049;PMS7003;42935;50.966;16.992;2023-04-03T16:21:26;22;18;10
57049;PMS7003;42935;50.966;16.992;2023-04-03T16:24:46;24;20;13
57049;PMS7003;42935;50.966;16.992;2023-04-03T16:28:23;28;23;15
57049;PMS7003;42935;50.966;16.992;2023-04-03T16:31:41;9;9;7
57049;PMS7003;42935;50.966;16.992;2023-04-03T16:35:03;14;11;8
57049;PMS7003;42935;50.966;16.992;2023-04-03T16:38:28;13;7;4
57049;PMS7003;42935;50.966;16.992;2023-04-03T16:41:48;14;11;8
57049;PMS7003;42935;50.966;16.992;2023-04-03T16:45:42;21;19;14
57049;PMS7003;42935;50.966;16.992;2023-04-03T16:49:00;20;15;11
57049;PMS7003;42935;50.966;16.992;2023-04-03T16:52:21;23;17;13
57049;PMS7003;42935;50.966;16.992;2023-04-03T16:55:36;24;19;14
57049;PMS7003;42935;50.966;16.992;2023-04-03T16:58:57;42;30;19
57049;PMS7003;42935;50.966;16.992;2023-04-03T17:02:21;28;22;15
57049;PMS7003;42935;50.966;16.992;2023-04-03T17:05:46;18;14;10
57049;PMS7003;42935;50.966;16.992;2023-04-03T17:09:02;12;10;8
57049;PMS7003;42935;50.966;16.992;2023-04-03T17:12:20;14;14;11
57049;PMS7003;42935;50.966;16.992;2023-04-03T17:15:40;21;17;11
57049;PMS7003;42935;50.966;16.992;2023-04-03T17:19:07;20;13;10
57049;PMS7003;42935;50.966;16.992;2023-04-03T17:22:32;23;21;13
57049;PMS7003;42935;50.966;16.992;2023-04-03T17:25:50;24;18;13
57049;PMS7003;42935;50.966;16.992;2023-04-03T17:29:10;30;23;16
57049;PMS7003;42935;50.966;16.992;2023-04-03T17:32:34;32;25;17
57049;PMS7003;42935;50.966;16.992;2023-04-03T17:35:56;22;17;12
57049;PMS7003;42935;50.966;16.992;2023-04-03T17:39:16;21;15;12
57049;PMS7003;42935;50.966;16.992;2023-04-03T17:42:34;12;10;8
57049;PMS7003;42935;50.966;16.992;2023-04-03T17:45:50;17;12;8
57049;PMS7003;42935;50.966;16.992;2023-04-03T17:49:11;16;11;9
57049;PMS7003;42935;50.966;16.992;2023-04-03T17:52:32;11;8;6
57049;PMS7003;42935;50.966;16.992;2023-04-03T17:55:47;14;13;8
57049;PMS7003;42935;50.966;16.992;2023-04-03T17:59:08;15;12;9
57049;PMS7003;42935;50.966;16.992;2023-04-03T18:02:58;20;11;7
57049;PMS7003;42935;50.966;16.992;2023-04-03T18:06:47;24;21;14
57049;PMS7003;42935;50.966;16.992;2023-04-03T18:10:16;32;25;17
57049;PMS7003;42935;50.966;16.992;2023-04-03T18:13:44;35;28;17
57049;PMS7003;42935;50.966;16.992;2023-04-03T18:17:10;37;26;20
57049;PMS7003;42935;50.966;16.992;2023-04-03T18:20:34;34;26;17
57049;PMS7003;42935;50.966;16.992;2023-04-03T18:23:53;31;24;18
57049;PMS7003;42935;50.966;16.992;2023-04-03T18:27:24;37;29;19
57049;PMS7003;42935;50.966;16.992;2023-04-03T18:30:43;21;17;13
57049;PMS7003;42935;50.966;16.992;2023-04-03T18:34:01;29;25;18
57049;PMS7003;42935;50.966;16.992;2023-04-03T18:37:21;29;21;16
57049;PMS7003;42935;50.966;16.992;2023-04-03T18:40:42;28;23;16
57049;PMS7003;42935;50.966;16.992;2023-04-03T18:44:07;31;21;14
57049;PMS7003;42935;50.966;16.992;2023-04-03T18:47:33;27;17;12
57049;PMS7003;42935;50.966;16.992;2023-04-03T18:50:54;12;11;8
57049;PMS7003;42935;50.966;16.992;2023-04-03T18:54:10;20;15;11
57049;PMS7003;42935;50.966;16.992;2023-04-03T18:57:38;23;19;11
57049;PMS7003;42935;50.966;16.992;2023-04-03T19:00:57;25;20;13
57049;PMS7003;42935;50.966;16.992;2023-04-03T19:04:22;36;26;17
57049;PMS7003;42935;50.966;16.992;2023-04-03T19:07:44;21;16;12
57049;PMS7003;42935;50.966;16.992;2023-04-03T19:11:09;38;29;17
57049;PMS7003;42935;50.966;16.992;2023-04-03T19:14:29;25;19;12
57049;PMS7003;42935;50.966;16.992;2023-04-03T19:17:54;37;28;18
57049;PMS7003;42935;50.966;16.992;2023-04-03T19:21:14;26;21;14
57049;PMS7003;42935;50.966;16.992;2023-04-03T19:24:38;62;46;27
57049;PMS7003;42935;50.966;16.992;2023-04-03T19:27:58;51;34;21
57049;PMS7003;42935;50.966;16.992;2023-04-03T19:31:15;60;44;27
57049;PMS7003;42935;50.966;16.992;2023-04-03T19:34:35;42;31;19
57049;PMS7003;42935;50.966;16.992;2023-04-03T19:37:55;25;24;16
57049;PMS7003;42935;50.966;16.992;2023-04-03T19:41:14;30;26;17
57049;PMS7003;42935;50.966;16.992;2023-04-03T19:44:38;42;33;21
57049;PMS7003;42935;50.966;16.992;2023-04-03T19:48:31;34;25;16
57049;PMS7003;42935;50.966;16.992;2023-04-03T19:51:51;56;34;21
57049;PMS7003;42935;50.966;16.992;2023-04-03T19:55:11;25;20;15
57049;PMS7003;42935;50.966;16.992;2023-04-03T19:58:40;52;36;23
57049;PMS7003;42935;50.966;16.992;2023-04-03T20:02:08;48;34;21
57049;PMS7003;42935;50.966;16.992;2023-04-03T20:05:27;47;32;20
57049;PMS7003;42935;50.966;16.992;2023-04-03T20:08:51;66;45;26
57049;PMS7003;42935;50.966;16.992;2023-04-03T20:12:15;37;29;17
57049;PMS7003;42935;50.966;16.992;2023-04-03T20:15:42;46;34;20
57049;PMS7003;42935;50.966;16.992;2023-04-03T20:19:05;51;36;22
57049;PMS7003;42935;50.966;16.992;2023-04-03T20:22:30;48;36;21
57049;PMS7003;42935;50.966;16.992;2023-04-03T20:25:53;45;33;20
57049;PMS7003;42935;50.966;16.992;2023-04-03T20:29:24;48;34;21
57049;PMS7003;42935;50.966;16.992;2023-04-03T20:32:50;41;31;19
57049;PMS7003;42935;50.966;16.992;2023-04-03T20:36:10;61;42;26
57049;PMS7003;42935;50.966;16.992;2023-04-03T20:39:27;47;34;21
57049;PMS7003;42935;50.966;16.992;2023-04-03T20:42:50;57;41;23
57049;PMS7003;42935;50.966;16.992;2023-04-03T20:46:18;61;44;26
57049;PMS7003;42935;50.966;16.992;2023-04-03T20:49:48;44;30;18
57049;PMS7003;42935;50.966;16.992;2023-04-03T20:53:10;42;30;18
57049;PMS7003;42935;50.966;16.992;2023-04-03T20:56:38;36;28;16
57049;PMS7003;42935;50.966;16.992;2023-04-03T20:59:54;29;22;15
57049;PMS7003;42935;50.966;16.992;2023-04-03T21:03:18;28;22;13
57049;PMS7003;42935;50.966;16.992;2023-04-03T21:20:21;19;15;10
57049;PMS7003;42935;50.966;16.992;2023-04-03T21:23:45;45;30;18
57049;PMS7003;42935;50.966;16.992;2023-04-03T21:27:10;18;15;10
57049;PMS7003;42935;50.966;16.992;2023-04-03T21:30:30;26;19;13
57049;PMS7003;42935;50.966;16.992;2023-04-03T21:33:49;19;12;8
57049;PMS7003;42935;50.966;16.992;2023-04-03T21:37:14;17;11;9
57049;PMS7003;42935;50.966;16.992;2023-04-03T21:40:33;13;10;8
57049;PMS7003;42935;50.966;16.992;2023-04-03T21:43:52;15;9;7
57049;PMS7003;42935;50.966;16.992;2023-04-03T21:47:12;9;9;6
57049;PMS7003;42935;50.966;16.992;2023-04-03T21:50:28;12;8;5
57049;PMS7003;42935;50.966;16.992;2023-04-03T21:53:51;9;8;5
57049;PMS7003;42935;50.966;16.992;2023-04-03T21:57:11;9;7;5
57049;PMS7003;42935;50.966;16.992;2023-04-03T22:00:31;10;6;5
57049;PMS7003;42935;50.966;16.992;2023-04-03T22:03:48;12;6;4
57049;PMS7003;42935;50.966;16.992;2023-04-03T22:07:08;9;7;5
57049;PMS7003;42935;50.966;16.992;2023-04-03T22:10:26;16;13;10
57049;PMS7003;42935;50.966;16.992;2023-04-03T22:13:44;15;14;11
57049;PMS7003;42935;50.966;16.992;2023-04-03T22:17:01;27;22;16
57049;PMS7003;42935;50.966;16.992;2023-04-03T22:20:27;47;34;21
57049;PMS7003;42935;50.966;16.992;2023-04-03T22:23:55;54;37;22
57049;PMS7003;42935;50.966;16.992;2023-04-03T22:27:19;58;41;23
57049;PMS7003;42935;50.966;16.992;2023-04-03T22:30:39;47;32;19
57049;PMS7003;42935;50.966;16.992;2023-04-03T22:34:04;51;36;21
57049;PMS7003;42935;50.966;16.992;2023-04-03T22:37:19;36;27;18
57049;PMS7003;42935;50.966;16.992;2023-04-03T22:40:38;31;23;14
57049;PMS7003;42935;50.966;16.992;2023-04-03T22:43:58;34;23;15
57049;PMS7003;42935;50.966;16.992;2023-04-03T22:47:18;26;22;12
57049;PMS7003;42935;50.966;16.992;2023-04-03T22:50:39;16;13;8
57049;PMS7003;42935;50.966;16.992;2023-04-03T22:53:59;12;9;7
57049;PMS7003;42935;50.966;16.992;2023-04-03T22:57:16;13;10;6
57049;PMS7003;42935;50.966;16.992;2023-04-03T23:00:35;13;9;6
57049;PMS7003;42935;50.966;16.992;2023-04-03T23:03:55;13;9;6
57049;PMS7003;42935;50.966;16.992;2023-04-03T23:07:46;14;9;7
57049;PMS7003;42935;50.966;16.992;2023-04-03T23:11:05;11;9;7
57049;PMS7003;42935;50.966;16.992;2023-04-03T23:14:31;22;14;8
57049;PMS7003;42935;50.966;16.992;2023-04-03T23:17:51;19;14;9
57049;PMS7003;42935;50.966;16.992;2023-04-03T23:21:17;20;18;11
57049;PMS7003;42935;50.966;16.992;2023-04-03T23:24:36;16;11;8
57049;PMS7003;42935;50.966;16.992;2023-04-03T23:27:52;12;10;7
57049;PMS7003;42935;50.966;16.992;2023-04-03T23:31:12;12;11;8
57049;PMS7003;42935;50.966;16.992;2023-04-03T23:34:30;21;15;9
57049;PMS7003;42935;50.966;16.992;2023-04-03T23:37:50;17;12;9
57049;PMS7003;42935;50.966;16.992;2023-04-03T23:41:09;18;14;10
57049;PMS7003;42935;50.966;16.992;2023-04-03T23:44:30;26;20;13
57049;PMS7003;42935;50.966;16.992;2023-04-03T23:47:47;16;13;10
57049;PMS7003;42935;50.966;16.992;2023-04-03T23:51:09;15;10;7
57049;PMS7003;42935;50.966;16.992;2023-04-03T23:54:32;10;8;6
57049;PMS7003;42935;50.966;16.992;2023-04-03T23:57:52;17;10;8
